Monarch Bay, California
Current Conditions -  °F | °C
As of 2:53 AM on Thursday 18 Dec 2014 (Local Time) from KSNA Reporting Station
Few Clouds Few Clouds  
Wind Chill: 53°   Ceiling: Unl
Heat Index: 53°   Visibility: 10mi
Dew Point: 45°   Wind: 0mph
Humidity: 74%   Direction: NA
Pressure: 30.11"   Gusts: NA
Location:  33.4774°N, 117.704°W
Report Text: KSNA 181053Z AUTO 00000KT 10SM FEW100 12/07 A3011 RMK AO2 SLP197 T01170072 TSNO
Loading
Personal Weather Stations






























Interactive Weather Map New forecast layout! Learn more

10-Day Weather Forecast

Advertisements
Track Severe Weather on mobile